• Join FlightAware (Why Join?)
  • Login
  • US Flag 
06:56AM EDT


 

Airport Tracker/Info


-or-


 

Live Flight TrackerFlight Track Log ✈ EJM77 ✈ 19-Jun-2013 ✈ KMSP - KLNK

Flight Track Log - Related Links

Times and Time Zones

All times are in EDT time to prevent confusion due to time zone crossing. See the EJM77 flight status page for this flight to view local times or setup timezone preferences in your user account.

Time Position Orientation Groundspeed Altitude Reporting Facility
EDT Latitude Longitude Course Direction KTS MPH feet Rate Location/Type
04:15PM 44.8267 -93.2258 209° Southwest 213 245 3,300  Level Minneapolis Center
04:16PM 44.7558 -93.2822 209° Southwest 263 303 7,100 3,480 Climbing Minneapolis Center
04:17PM 44.6964 -93.3517 220° Southwest 284 327 10,500 3,480 Climbing Minneapolis Center
04:18PM 44.6319 -93.4200 217° Southwest 292 336 14,300 3,540 Climbing Minneapolis Center
04:19PM 44.5675 -93.4856 216° Southwest 288 331 17,900 3,840 Climbing Minneapolis Center
04:20PM 44.4978 -93.5517 214° Southwest 260 299 22,300 2,760 Climbing Minneapolis Center
04:21PM 44.4375 -93.6028 211° Southwest 253 291 23,700 1,500 Climbing Minneapolis Center
04:22PM 44.3647 -93.6700 213° Southwest 305 351 25,400 1,740 Climbing Minneapolis Center
04:23PM 44.2869 -93.7439 214° Southwest 334 384 27,300 1,980 Climbing Minneapolis Center
04:24PM 44.2039 -93.8217 214° Southwest 355 409 29,500 1,260 Climbing Minneapolis Center
04:25PM 44.0961 -93.9211 214° Southwest 383 441 30,000 240 Climbing Minneapolis Center
04:26PM 44.0025 -94.0269 219° Southwest 429 494 30,000  Level Minneapolis Center
04:27PM 43.9197 -94.1206 219° Southwest 394 453 30,000  Level Minneapolis Center
04:28PM 43.8353 -94.2036 215° Southwest 376 433 30,000  Level Minneapolis Center
04:29PM 43.7419 -94.2942 215° Southwest 370 426 30,000  Level Minneapolis Center
04:30PM 43.6592 -94.3775 216° Southwest 368 423 30,000  Level Minneapolis Center
04:31PM 43.5764 -94.4575 215° Southwest 365 420 30,000  Level Minneapolis Center
04:32PM 43.4931 -94.5383 215° Southwest 366 421 30,000  Level Minneapolis Center
04:33PM 43.4097 -94.6197 215° Southwest 367 422 30,000  Level Minneapolis Center
04:34PM 43.3108 -94.7161 215° Southwest 364 419 30,000  Level Minneapolis Center
04:35PM 43.2289 -94.7942 215° Southwest 360 414 30,000  Level Minneapolis Center
04:36PM 43.1469 -94.8728 215° Southwest 360 414 30,000  Level Minneapolis Center
04:38PM 43.0658 -94.9503 215° Southwest 357 411 30,000  Level Minneapolis Center
04:39PM 42.9839 -95.0281 215° Southwest 358 412 30,000  Level Minneapolis Center
04:40PM 42.9042 -95.1033 215° Southwest 351 404 30,000  Level Minneapolis Center
04:41PM 42.8086 -95.1947 215° Southwest 348 400 30,000  Level Minneapolis Center
04:42PM 42.7303 -95.2703 215° Southwest 347 399 30,000  Level Minneapolis Center
04:43PM 42.6628 -95.3342 215° Southwest 345 397 30,000  Level Minneapolis Center
04:44PM 42.5672 -95.4233 215° Southwest 346 398 30,000  Level Minneapolis Center
04:45PM 42.4878 -95.4969 214° Southwest 347 399 30,000  Level Minneapolis Center
04:46PM 42.4094 -95.5706 215° Southwest 344 396 30,000  Level Minneapolis Center
04:47PM 42.3308 -95.6428 214° Southwest 343 395 30,000  Level Minneapolis Center
04:48PM 42.2522 -95.7150 214° Southwest 341 392 30,000 -720 Level Minneapolis Center
04:49PM 42.1550 -95.8050 214° Southwest 355 409 28,600 -1,500 Descending Minneapolis Center
04:50PM 42.0661 -95.8889 215° Southwest 386 444 26,900 -1,500 Descending Minneapolis Center
04:51PM 41.9736 -95.9725 214° Southwest 399 459 25,500 -1,500 Descending Minneapolis Center
04:52PM 41.8803 -96.0581 214° Southwest 407 468 23,900 -1,680 Descending Minneapolis Center
04:53PM 41.7928 -96.1494 218° Southwest 406 467 22,500 -1,680 Descending Minneapolis Center
04:54PM 41.6919 -96.2389 214° Southwest 399 459 20,800 -1,620 Descending Minneapolis Center
04:55PM 41.6086 -96.3122 213° Southwest 396 456 19,300 -1,680 Descending Minneapolis Center
04:56PM 41.4914 -96.4142 213° Southwest 385 443 17,200 -1,560 Descending Minneapolis Center
04:57PM 41.4397 -96.4586 213° Southwest 368 423 16,300 -1,560 Descending Minneapolis Center
04:58PM 41.3664 -96.5222 213° Southwest 342 394 14,900 -1,440 Descending Minneapolis Center
04:58PM 41.3414 -96.5450 214° Southwest 343 395 14,200 -2,400 Descending Minneapolis Center
04:59PM 41.2483 -96.5956 202° Southwest 317 365 11,100 -3,300 Descending Minneapolis Center
05:00PM 41.2064 -96.6472 223° Southwest 308 354 8,800 -2,520 Descending Minneapolis Center
05:00PM 41.1939 -96.6764 240° Southwest 309 356 8,000 -2,040 Descending Minneapolis Center
05:02PM 41.1119 -96.7283 206° Southwest 279 321 5,100 -2,160 Descending Minneapolis Center
05:03PM 41.0272 -96.7444 188° South 265 305 3,100 -1,080 Descending Minneapolis Center
05:04PM 40.9453 -96.7569 187° South 205 236 2,900 -540 Descending Minneapolis Center
05:05PM 40.9108 -96.7608 185° South 190 219 2,100 -780 Descending Minneapolis Center
05:06PM 40.8597 -96.7575 177° South 141 162 1,400 -720 Descending Minneapolis Center